createdAt,value
2023-04-20T00:00:53.011Z,7.17
2023-04-20T00:03:22.596Z,7.13
2023-04-20T00:05:50.788Z,7.09
2023-04-20T00:08:18.756Z,7.15
2023-04-20T00:10:47.075Z,7.13
2023-04-20T00:13:15.057Z,7.16
2023-04-20T00:15:42.982Z,7.09
2023-04-20T00:18:11.127Z,7.04
2023-04-20T00:20:40.398Z,7.07
2023-04-20T00:23:08.301Z,7.13
2023-04-20T00:25:36.452Z,7.05
2023-04-20T00:28:05.143Z,7.08
2023-04-20T00:30:34.789Z,7.07
2023-04-20T00:33:03.459Z,7.14
2023-04-20T00:35:31.782Z,7.13
2023-04-20T00:38:01.156Z,7.09
2023-04-20T00:40:29.135Z,7.11
2023-04-20T00:42:57.925Z,7.13
2023-04-20T00:45:26.008Z,7.16
2023-04-20T00:47:54.000Z,7.06
2023-04-20T00:50:22.294Z,7.01
2023-04-20T00:52:50.630Z,7.09
2023-04-20T00:55:20.965Z,7.04
2023-04-20T00:57:49.452Z,7.07
2023-04-20T01:00:27.509Z,7.00
2023-04-20T01:02:55.840Z,6.95
2023-04-20T01:05:24.117Z,6.95
2023-04-20T01:07:52.074Z,6.97
2023-04-20T01:10:21.454Z,6.98
2023-04-20T01:12:49.529Z,6.92
2023-04-20T01:19:18.532Z,6.90
2023-04-20T01:21:47.333Z,6.90
2023-04-20T01:24:17.817Z,6.92
2023-04-20T01:26:45.842Z,6.79
2023-04-20T01:29:13.755Z,6.83
2023-04-20T01:31:44.034Z,6.78
2023-04-20T01:34:12.093Z,6.87
2023-04-20T01:36:41.153Z,6.83
2023-04-20T01:39:10.001Z,6.73
2023-04-20T01:41:39.484Z,6.75
2023-04-20T01:44:07.483Z,6.81
2023-04-20T01:46:38.378Z,6.74
2023-04-20T01:49:08.517Z,6.77
2023-04-20T01:51:37.926Z,6.72
2023-04-20T01:54:05.901Z,6.75
2023-04-20T01:56:33.909Z,6.80
2023-04-20T01:59:03.297Z,6.85
2023-04-20T02:01:31.274Z,6.85
2023-04-20T02:04:01.658Z,6.87
2023-04-20T02:06:29.846Z,6.93
2023-04-20T02:08:57.900Z,6.94
2023-04-20T02:11:26.401Z,7.01
2023-04-20T02:13:54.431Z,6.81
2023-04-20T02:16:24.953Z,6.80
2023-04-20T02:18:53.018Z,6.95
2023-04-20T02:21:20.965Z,6.96
2023-04-20T02:23:48.950Z,6.91
2023-04-20T02:26:17.105Z,7.04
2023-04-20T02:28:45.051Z,7.04
2023-04-20T02:31:13.133Z,7.02
2023-04-20T02:33:42.769Z,6.95
2023-04-20T02:36:11.099Z,6.97
2023-04-20T02:38:41.551Z,7.01
2023-04-20T02:41:09.844Z,6.94
2023-04-20T02:43:38.582Z,7.02
2023-04-20T02:46:07.709Z,6.97
2023-04-20T02:48:36.012Z,6.90
2023-04-20T02:51:05.640Z,6.91
2023-04-20T02:53:39.676Z,6.92
2023-04-20T02:56:16.980Z,6.93
2023-04-20T02:58:52.111Z,6.92
2023-04-20T03:01:23.786Z,6.99
2023-04-20T03:03:59.979Z,6.91
2023-04-20T03:06:29.738Z,6.90
2023-04-20T03:08:58.581Z,6.90
2023-04-20T03:11:47.073Z,6.81
2023-04-20T03:14:26.944Z,6.96
2023-04-20T03:16:55.208Z,6.98
2023-04-20T03:19:23.261Z,6.85
2023-04-20T03:21:52.595Z,7.09
2023-04-20T03:24:20.940Z,6.88
2023-04-20T03:26:49.285Z,6.91
2023-04-20T03:29:20.769Z,6.92
2023-04-20T03:31:48.957Z,6.84
2023-04-20T03:34:16.971Z,6.85
2023-04-20T03:36:46.264Z,6.89
2023-04-20T03:39:15.899Z,6.96
2023-04-20T03:41:44.096Z,6.89
2023-04-20T03:44:12.793Z,6.89
2023-04-20T03:46:41.120Z,6.88
2023-04-20T03:49:09.073Z,6.88
2023-04-20T03:51:37.696Z,6.89
2023-04-20T03:54:07.187Z,7.00
2023-04-20T03:56:37.062Z,7.00
2023-04-20T03:59:05.190Z,6.93
2023-04-20T04:01:33.267Z,6.85
2023-04-20T04:04:01.474Z,6.93
2023-04-20T04:06:29.649Z,6.93
2023-04-20T04:08:57.572Z,7.03
2023-04-20T04:11:26.717Z,6.98
2023-04-20T04:13:56.141Z,7.01
2023-04-20T04:16:24.140Z,7.03
2023-04-20T04:18:52.267Z,6.98
2023-04-20T04:21:21.080Z,7.10
2023-04-20T04:23:55.937Z,7.04
2023-04-20T04:26:36.338Z,7.10
2023-04-20T04:29:07.086Z,7.06
2023-04-20T04:31:35.511Z,7.06
2023-04-20T04:34:09.689Z,7.05
2023-04-20T04:36:44.491Z,7.07
2023-04-20T04:39:15.238Z,7.19
2023-04-20T04:41:51.269Z,7.23
2023-04-20T04:44:29.012Z,7.30
2023-04-20T04:46:57.749Z,7.30
2023-04-20T04:49:27.414Z,7.32
2023-04-20T04:51:55.466Z,7.38
2023-04-20T04:54:23.431Z,7.45
2023-04-20T04:56:51.732Z,7.37
2023-04-20T04:59:19.886Z,7.47
2023-04-20T05:01:49.329Z,7.46
2023-04-20T05:04:17.495Z,7.49
2023-04-20T05:06:45.741Z,7.40
2023-04-20T05:09:13.724Z,7.43
2023-04-20T05:11:41.626Z,7.43
2023-04-20T05:14:09.688Z,7.39
2023-04-20T05:16:38.163Z,7.37
2023-04-20T05:19:07.540Z,7.38
2023-04-20T05:21:36.227Z,7.34
2023-04-20T05:24:04.225Z,7.36
2023-04-20T05:26:32.126Z,7.36
2023-04-20T05:29:00.482Z,7.47
2023-04-20T05:31:29.133Z,7.30
2023-04-20T05:33:57.124Z,7.50
2023-04-20T05:36:27.260Z,7.41
2023-04-20T05:38:55.489Z,7.52
2023-04-20T05:41:27.226Z,7.57
2023-04-20T05:43:55.419Z,7.51
2023-04-20T05:46:24.297Z,7.59
2023-04-20T05:48:52.570Z,7.65
2023-04-20T05:51:22.094Z,7.52
2023-04-20T05:53:51.616Z,7.74
2023-04-20T05:56:19.633Z,7.72
2023-04-20T05:58:47.902Z,7.71
2023-04-20T06:01:15.916Z,7.71
2023-04-20T06:03:44.223Z,7.84
2023-04-20T06:06:12.264Z,8.12
2023-04-20T06:08:40.189Z,8.18
2023-04-20T06:11:09.578Z,8.31
2023-04-20T06:13:37.446Z,8.30
2023-04-20T06:16:09.517Z,8.17
2023-04-20T06:18:38.232Z,8.25
2023-04-20T06:21:06.326Z,8.29
2023-04-20T06:23:34.320Z,8.29
2023-04-20T06:26:02.233Z,8.27
2023-04-20T06:28:31.478Z,8.29
2023-04-20T06:30:59.427Z,8.05
2023-04-20T06:33:27.413Z,8.12
2023-04-20T06:35:56.669Z,8.18
2023-04-20T06:38:25.435Z,8.18
2023-04-20T06:40:53.374Z,8.12
2023-04-20T06:43:21.332Z,8.18
2023-04-20T06:45:50.587Z,8.14
2023-04-20T06:48:31.359Z,8.21
2023-04-20T06:51:00.461Z,8.22
2023-04-20T06:53:28.345Z,8.12
2023-04-20T06:55:56.226Z,8.07
2023-04-20T06:58:24.110Z,8.22
2023-04-20T07:00:53.405Z,8.14
2023-04-20T07:03:21.420Z,8.18
2023-04-20T07:05:49.458Z,8.17
2023-04-20T07:08:17.482Z,8.10
2023-04-20T07:10:45.401Z,8.15
2023-04-20T07:13:13.332Z,8.33
2023-04-20T07:15:41.222Z,8.26
2023-04-20T07:18:10.575Z,8.50
2023-04-20T07:20:38.566Z,8.44
2023-04-20T07:23:06.526Z,8.64
2023-04-20T07:25:34.451Z,8.76
2023-04-20T07:28:02.377Z,8.86
2023-04-20T07:30:31.333Z,9.08
2023-04-20T07:32:59.287Z,9.31
2023-04-20T07:35:28.684Z,9.44
2023-04-20T07:37:56.640Z,9.66
2023-04-20T07:40:24.729Z,9.73
2023-04-20T07:42:52.636Z,9.89
2023-04-20T07:45:21.871Z,9.98
2023-04-20T07:47:51.723Z,10.13
2023-04-20T07:50:19.681Z,10.18
2023-04-20T07:52:48.991Z,10.25
2023-04-20T07:55:17.446Z,10.37
2023-04-20T07:57:45.902Z,10.39
2023-04-20T08:00:15.229Z,10.49
2023-04-20T08:02:45.962Z,10.52
2023-04-20T08:05:14.148Z,10.76
2023-04-20T08:07:42.357Z,10.83
2023-04-20T08:10:12.321Z,10.79
2023-04-20T08:12:40.786Z,10.86
2023-04-20T08:15:10.572Z,10.90
2023-04-20T08:17:38.659Z,11.05
2023-04-20T08:20:08.267Z,11.30
2023-04-20T08:22:36.399Z,11.46
2023-04-20T08:25:04.777Z,11.82
2023-04-20T08:27:34.733Z,11.79
2023-04-20T08:30:04.450Z,11.94
2023-04-20T08:32:32.534Z,11.65
2023-04-20T08:35:00.416Z,11.96
2023-04-20T08:37:30.007Z,11.77
2023-04-20T08:39:59.271Z,11.90
2023-04-20T08:42:27.155Z,11.99
2023-04-20T08:44:56.483Z,11.88
2023-04-20T08:47:24.841Z,11.95
2023-04-20T08:49:54.746Z,12.20
2023-04-20T08:52:22.720Z,12.45
2023-04-20T08:54:56.792Z,12.63
2023-04-20T08:57:26.282Z,12.84
2023-04-20T08:59:58.557Z,12.81
2023-04-20T09:02:26.648Z,13.28
2023-04-20T09:05:02.677Z,13.26
2023-04-20T09:07:30.791Z,13.16
2023-04-20T09:09:59.856Z,13.17
2023-04-20T09:12:28.362Z,13.29
2023-04-20T09:14:57.861Z,13.71
2023-04-20T09:17:33.637Z,13.79
2023-04-20T09:20:01.917Z,14.01
2023-04-20T09:22:34.172Z,14.06
2023-04-20T09:25:04.339Z,13.93
2023-04-20T09:27:32.326Z,14.17
2023-04-20T09:30:03.786Z,14.30
2023-04-20T09:32:33.039Z,14.47
2023-04-20T09:35:01.360Z,14.68
2023-04-20T09:37:29.295Z,14.75
2023-04-20T09:40:01.049Z,14.95
2023-04-20T09:42:29.670Z,15.01
2023-04-20T09:44:58.634Z,14.63
2023-04-20T09:47:45.385Z,14.25
2023-04-20T09:50:24.825Z,14.81
2023-04-20T09:52:57.955Z,14.74
2023-04-20T09:55:27.333Z,15.03
2023-04-20T09:57:55.408Z,14.70
2023-04-20T10:00:24.363Z,14.68
2023-04-20T10:02:54.006Z,14.85
2023-04-20T10:05:33.830Z,14.94
2023-04-20T10:08:02.254Z,14.77
2023-04-20T10:10:31.147Z,14.44
2023-04-20T10:13:01.962Z,14.29
2023-04-20T10:15:39.638Z,14.41
2023-04-20T10:18:19.120Z,14.37
2023-04-20T10:20:47.433Z,14.50
2023-04-20T10:23:16.372Z,14.65
2023-04-20T10:25:45.471Z,14.52
2023-04-20T10:28:13.603Z,14.10
2023-04-20T10:30:51.712Z,13.92
2023-04-20T10:33:22.475Z,13.69
2023-04-20T10:35:52.108Z,13.71
2023-04-20T10:38:32.220Z,13.53
2023-04-20T10:41:07.223Z,13.41
2023-04-20T10:43:35.937Z,13.05
2023-04-20T10:46:03.932Z,13.26
2023-04-20T10:48:33.271Z,13.47
2023-04-20T10:51:10.399Z,13.35
2023-04-20T10:53:38.348Z,13.00
2023-04-20T10:56:06.663Z,13.22
2023-04-20T10:58:34.604Z,12.81
2023-04-20T11:01:04.516Z,12.71
2023-04-20T11:03:34.487Z,12.73
2023-04-20T11:06:03.953Z,12.94
2023-04-20T11:08:39.632Z,13.10
2023-04-20T11:11:18.088Z,13.19
2023-04-20T11:13:46.122Z,12.68
2023-04-20T11:16:14.514Z,12.43
2023-04-20T11:18:54.145Z,12.71
2023-04-20T11:21:22.443Z,12.33
2023-04-20T11:23:50.698Z,12.77
2023-04-20T11:26:18.879Z,12.63
2023-04-20T11:28:55.870Z,12.54
2023-04-20T11:31:25.530Z,12.82
2023-04-20T11:33:55.008Z,13.20
2023-04-20T11:36:24.058Z,13.16
2023-04-20T11:38:52.402Z,13.21
2023-04-20T11:41:21.794Z,13.04
2023-04-20T11:43:50.057Z,12.93
2023-04-20T11:46:19.270Z,13.42
2023-04-20T11:48:47.496Z,13.68
2023-04-20T11:51:17.079Z,13.89
2023-04-20T11:53:45.208Z,13.67
2023-04-20T11:56:13.082Z,14.07
2023-04-20T11:58:40.988Z,14.03
2023-04-20T12:01:08.888Z,14.66
2023-04-20T12:03:37.148Z,14.54
2023-04-20T12:06:05.580Z,14.05
2023-04-20T12:08:37.204Z,13.95
2023-04-20T12:11:05.641Z,14.36
2023-04-20T12:13:33.497Z,14.41
2023-04-20T12:16:01.545Z,14.34
2023-04-20T12:18:29.454Z,14.52
2023-04-20T12:20:57.514Z,14.50
2023-04-20T12:23:25.398Z,15.07
2023-04-20T12:25:54.650Z,15.23
2023-04-20T12:28:22.562Z,15.64
2023-04-20T12:30:50.503Z,16.13
2023-04-20T12:33:18.362Z,16.43
2023-04-20T12:35:46.344Z,16.84
2023-04-20T12:38:14.749Z,16.63
2023-04-20T12:40:42.854Z,17.03
2023-04-20T12:43:12.099Z,16.89
2023-04-20T12:45:40.067Z,17.33
2023-04-20T12:48:08.089Z,17.03
2023-04-20T12:50:36.054Z,16.63
2023-04-20T12:53:04.038Z,16.98
2023-04-20T12:55:32.095Z,16.99
2023-04-20T12:58:00.027Z,16.55
2023-04-20T13:00:29.352Z,16.87
2023-04-20T13:02:57.404Z,17.09
2023-04-20T13:05:25.419Z,17.33
2023-04-20T13:07:53.470Z,17.73
2023-04-20T13:10:21.413Z,17.59
2023-04-20T13:12:51.709Z,17.58
2023-04-20T13:15:32.023Z,18.55
2023-04-20T13:18:09.718Z,18.90
2023-04-20T13:20:38.000Z,18.57
2023-04-20T13:23:06.487Z,18.55
2023-04-20T13:25:34.844Z,18.06
2023-04-20T13:28:03.852Z,18.03
2023-04-20T13:30:32.157Z,17.99
2023-04-20T13:33:00.162Z,18.36
2023-04-20T13:35:29.663Z,18.38
2023-04-20T13:37:57.586Z,18.80
2023-04-20T13:40:25.833Z,18.51
2023-04-20T13:42:53.753Z,18.07
2023-04-20T13:45:21.784Z,17.92
2023-04-20T13:47:49.720Z,18.35
2023-04-20T13:50:17.847Z,18.24
2023-04-20T13:52:47.456Z,17.54
2023-04-20T13:55:15.400Z,18.94
2023-04-20T13:57:43.379Z,18.93
2023-04-20T14:00:11.930Z,18.84
2023-04-20T14:02:40.227Z,18.84
2023-04-20T14:05:10.275Z,18.31
2023-04-20T14:07:38.437Z,18.62
2023-04-20T14:10:09.297Z,18.54
2023-04-20T14:12:37.177Z,18.43
2023-04-20T14:15:05.697Z,18.60
2023-04-20T14:17:33.573Z,19.54
2023-04-20T14:20:01.496Z,19.78
2023-04-20T14:22:34.381Z,18.97
2023-04-20T14:25:02.354Z,18.95
2023-04-20T14:27:31.622Z,19.13
2023-04-20T14:29:59.878Z,18.38
2023-04-20T14:32:27.806Z,18.83
2023-04-20T14:34:55.693Z,18.98
2023-04-20T14:37:24.978Z,19.54
2023-04-20T14:39:52.878Z,19.55
2023-04-20T14:42:21.190Z,19.31
2023-04-20T14:44:50.488Z,19.85
2023-04-20T14:47:18.847Z,19.78
2023-04-20T14:49:46.864Z,19.93
2023-04-20T14:52:14.712Z,20.33
2023-04-20T14:54:42.622Z,19.77
2023-04-20T14:57:10.471Z,19.44
2023-04-20T14:59:41.376Z,19.44
2023-04-20T15:02:10.845Z,19.36
2023-04-20T15:04:38.870Z,18.79
2023-04-20T15:07:06.816Z,18.75
2023-04-20T15:09:34.890Z,18.48
2023-04-20T15:12:02.917Z,18.13
2023-04-20T15:14:30.821Z,17.91
2023-04-20T15:16:58.875Z,18.12
2023-04-20T15:19:28.234Z,18.24
2023-04-20T15:21:56.090Z,17.93
2023-04-20T15:24:24.049Z,18.26
2023-04-20T15:26:51.904Z,18.48
2023-04-20T15:29:19.760Z,17.71
2023-04-20T15:31:47.670Z,17.63
2023-04-20T15:34:17.277Z,17.62
2023-04-20T15:36:47.223Z,16.94
2023-04-20T15:39:15.163Z,16.61
2023-04-20T15:41:43.499Z,16.50
2023-04-20T15:44:11.492Z,16.63
2023-04-20T15:46:39.478Z,16.79
2023-04-20T15:49:07.426Z,16.68
2023-04-20T15:51:35.363Z,16.67
2023-04-20T15:54:04.937Z,17.03
2023-04-20T15:56:32.869Z,17.16
2023-04-20T15:59:00.829Z,17.42
2023-04-20T16:01:28.818Z,17.42
2023-04-20T16:03:56.931Z,17.26
2023-04-20T16:06:24.954Z,17.68
2023-04-20T16:08:54.070Z,17.46
2023-04-20T16:11:23.552Z,17.63
2023-04-20T16:13:51.546Z,17.53
2023-04-20T16:16:19.458Z,17.47
2023-04-20T16:18:47.898Z,17.32
2023-04-20T16:21:15.839Z,16.82
2023-04-20T16:23:43.653Z,16.81
2023-04-20T16:26:11.689Z,16.72
2023-04-20T16:28:41.069Z,16.81
2023-04-20T16:31:09.138Z,16.89
2023-04-20T16:33:37.740Z,16.53
2023-04-20T16:36:06.220Z,16.67
2023-04-20T16:38:34.316Z,16.47
2023-04-20T16:41:02.286Z,16.10
2023-04-20T16:43:30.303Z,16.58
2023-04-20T16:45:59.620Z,16.53
2023-04-20T16:48:27.556Z,16.42
2023-04-20T16:50:55.823Z,16.17
2023-04-20T16:53:23.955Z,16.14
2023-04-20T16:55:51.967Z,15.80
2023-04-20T16:58:19.899Z,15.86
2023-04-20T17:00:48.228Z,15.67
2023-04-20T17:03:17.849Z,15.69
2023-04-20T17:05:46.653Z,15.47
2023-04-20T17:08:14.654Z,15.30
2023-04-20T17:10:42.531Z,15.11
2023-04-20T17:13:10.485Z,14.59
2023-04-20T17:15:40.086Z,14.27
2023-04-20T17:18:08.028Z,14.00
2023-04-20T17:20:37.347Z,13.96
2023-04-20T17:23:05.279Z,13.76
2023-04-20T17:25:33.344Z,13.53
2023-04-20T17:28:02.700Z,13.22
2023-04-20T17:30:30.915Z,13.12
2023-04-20T17:33:00.660Z,13.04
2023-04-20T17:35:28.739Z,12.88
2023-04-20T17:37:59.693Z,12.81
2023-04-20T17:40:27.726Z,12.79
2023-04-20T17:42:55.798Z,12.70
2023-04-20T17:45:24.047Z,12.53
2023-04-20T17:47:53.605Z,12.51
2023-04-20T17:50:22.720Z,12.31
2023-04-20T17:52:51.598Z,12.22
2023-04-20T17:55:21.152Z,12.16
2023-04-20T17:57:50.289Z,12.00
2023-04-20T18:00:20.483Z,11.93
2023-04-20T18:02:48.508Z,11.77
2023-04-20T18:05:17.075Z,11.75
2023-04-20T18:07:45.745Z,11.70
2023-04-20T18:10:15.727Z,11.60
2023-04-20T18:12:45.382Z,11.50
2023-04-20T18:15:13.616Z,11.52
2023-04-20T18:17:42.375Z,11.35
2023-04-20T18:20:11.089Z,11.30
2023-04-20T18:22:39.298Z,11.23
2023-04-20T18:25:07.717Z,11.22
2023-04-20T18:27:35.705Z,11.12
2023-04-20T18:30:06.063Z,10.98
2023-04-20T18:32:36.238Z,10.93
2023-04-20T18:35:04.301Z,10.91
2023-04-20T18:37:32.322Z,10.83
2023-04-20T18:40:00.760Z,10.76
2023-04-20T18:42:28.766Z,10.80
2023-04-20T18:44:56.789Z,10.71
2023-04-20T18:47:27.135Z,10.60
2023-04-20T18:49:55.343Z,10.52
2023-04-20T18:52:23.992Z,10.39
2023-04-20T18:54:51.910Z,10.37
2023-04-20T18:57:24.047Z,10.40
2023-04-20T18:59:52.197Z,10.34
2023-04-20T19:02:20.340Z,10.24
2023-04-20T19:04:50.748Z,10.19
2023-04-20T19:07:18.738Z,10.13
2023-04-20T19:09:46.676Z,10.15
2023-04-20T19:12:14.630Z,10.11
2023-04-20T19:14:42.585Z,9.93
2023-04-20T19:17:10.530Z,9.88
2023-04-20T19:19:38.506Z,9.80
2023-04-20T19:22:07.802Z,9.79
2023-04-20T19:24:35.858Z,9.65
2023-04-20T19:27:03.792Z,9.55
2023-04-20T19:29:32.884Z,9.56
2023-04-20T19:32:00.809Z,9.45
2023-04-20T19:34:28.884Z,9.46
2023-04-20T19:36:57.095Z,9.37
2023-04-20T19:39:26.466Z,9.28
2023-04-20T19:41:54.713Z,9.21
2023-04-20T19:44:23.043Z,9.20
2023-04-20T19:46:51.136Z,9.11
2023-04-20T19:49:19.332Z,9.09
2023-04-20T19:51:47.479Z,9.01
2023-04-20T19:54:16.672Z,8.94
2023-04-20T19:56:46.016Z,8.83
2023-04-20T19:59:13.939Z,8.79
2023-04-20T20:01:41.962Z,8.70
2023-04-20T20:04:12.345Z,8.81
2023-04-20T20:06:40.437Z,8.71
2023-04-20T20:09:08.585Z,8.71
2023-04-20T20:11:36.600Z,8.63
2023-04-20T20:14:05.977Z,8.58
2023-04-20T20:16:34.224Z,8.47
2023-04-20T20:19:02.187Z,8.49
2023-04-20T20:21:30.096Z,8.50
2023-04-20T20:23:58.145Z,8.36
2023-04-20T20:26:26.248Z,8.32
2023-04-20T20:28:54.430Z,8.27
2023-04-20T20:31:23.773Z,8.24
2023-04-20T20:33:52.134Z,8.16
2023-04-20T20:36:20.070Z,8.18
2023-04-20T20:38:48.490Z,8.09
2023-04-20T20:41:16.816Z,8.07
2023-04-20T20:43:45.783Z,8.05
2023-04-20T20:46:13.862Z,7.96
2023-04-20T20:48:43.224Z,7.95
2023-04-20T20:51:11.698Z,7.95
2023-04-20T20:53:39.584Z,8.00
2023-04-20T20:56:07.803Z,8.00
2023-04-20T20:58:35.734Z,8.04
2023-04-20T21:01:03.692Z,8.00
2023-04-20T21:03:32.045Z,8.00
2023-04-20T21:06:01.521Z,7.97
2023-04-20T21:08:29.392Z,8.02
2023-04-20T21:10:57.334Z,7.94
2023-04-20T21:13:25.383Z,7.97
2023-04-20T21:15:53.268Z,7.96
2023-04-20T21:18:21.164Z,7.99
2023-04-20T21:20:49.072Z,7.99
2023-04-20T21:23:18.385Z,7.96
2023-04-20T21:25:46.337Z,8.01
2023-04-20T21:28:14.226Z,8.08
2023-04-20T21:30:42.161Z,8.06
2023-04-20T21:33:10.099Z,8.06
2023-04-20T21:35:38.291Z,8.04
2023-04-20T21:38:06.207Z,8.10
2023-04-20T21:40:35.473Z,8.00
2023-04-20T21:43:03.432Z,8.02
2023-04-20T21:45:31.378Z,7.97
2023-04-20T21:47:59.307Z,8.04
2023-04-20T21:50:28.616Z,8.07
2023-04-20T21:52:56.535Z,8.03
2023-04-20T21:55:24.521Z,8.01
2023-04-20T21:57:53.809Z,8.05
2023-04-20T22:00:22.499Z,8.04
2023-04-20T22:02:50.731Z,8.07
2023-04-20T22:05:19.631Z,8.08
2023-04-20T22:07:47.519Z,8.05
2023-04-20T22:10:15.487Z,8.11
2023-04-20T22:12:43.656Z,8.10
2023-04-20T22:15:14.876Z,8.12
2023-04-20T22:17:45.411Z,8.12
2023-04-20T22:20:14.591Z,8.12
2023-04-20T22:22:42.477Z,8.07
2023-04-20T22:25:11.114Z,8.11
2023-04-20T22:27:39.202Z,8.15
2023-04-20T22:30:09.770Z,8.17
2023-04-20T22:32:39.204Z,8.07
2023-04-20T22:35:07.957Z,7.93
2023-04-20T22:37:36.083Z,7.90
2023-04-20T22:40:05.908Z,7.98
2023-04-20T22:42:34.817Z,7.95
2023-04-20T22:45:02.877Z,7.88
2023-04-20T22:47:30.838Z,7.87
2023-04-20T22:50:00.381Z,7.83
2023-04-20T22:52:28.328Z,7.81
2023-04-20T22:54:56.392Z,7.63
2023-04-20T22:57:24.441Z,7.70
2023-04-20T22:59:52.431Z,7.66
2023-04-20T23:02:20.498Z,7.64
2023-04-20T23:04:48.408Z,7.65
2023-04-20T23:07:19.539Z,7.67
2023-04-20T23:09:48.119Z,7.64
2023-04-20T23:12:16.548Z,7.63
2023-04-20T23:14:44.553Z,7.66
2023-04-20T23:17:12.515Z,7.67
2023-04-20T23:19:41.137Z,7.58
2023-04-20T23:22:09.756Z,7.49
2023-04-20T23:24:39.066Z,7.52
2023-04-20T23:27:07.039Z,7.62
2023-04-20T23:29:34.962Z,7.69
2023-04-20T23:32:03.256Z,7.62
2023-04-20T23:34:31.478Z,7.60
2023-04-20T23:36:59.752Z,7.67
2023-04-20T23:39:27.650Z,7.64
2023-04-20T23:41:57.898Z,7.71
2023-04-20T23:44:25.945Z,7.72
2023-04-20T23:46:53.793Z,7.74
2023-04-20T23:49:21.782Z,7.65
2023-04-20T23:51:52.361Z,7.73
2023-04-20T23:54:20.291Z,7.71
2023-04-20T23:56:49.293Z,7.65
2023-04-20T23:59:18.779Z,7.74
